Time;durP1;ratioP1;P1;durP2;ratioP2;P2;SDS_P1;SDS_P2;PMS_P1;PMS_P2;Temp;Humidity;BMP_temperature;BMP_pressure;BME280_temperature;BME280_humidity;BME280_pressure;Samples;Min_cycle;Max_cycle;Signal;HPM_P1;HPM_P2
2021/05/26 00:00:59;;;;;;;13.32;9.77;;;;;;;15.11;73.74;96551.09;5113633;28;20501;-61
2021/05/26 00:03:25;;;;;;;10.50;9.50;;;;;;;15.13;73.90;96549.19;5113488;28;20016;-58
2021/05/26 00:05:51;;;;;;;16.38;9.32;;;;;;;15.15;73.71;96549.97;5113514;28;20495;-64
2021/05/26 00:08:33;;;;;;;10.82;9.88;;;;;;;15.07;73.99;96553.03;5113430;28;20031;-63
2021/05/26 00:11:01;;;;;;;10.10;9.30;;;;;;;15.09;74.01;96555.56;5113663;28;20023;-62
2021/05/26 00:13:27;;;;;;;11.20;10.10;;;;;;;15.08;73.67;96561.78;5113454;28;20031;-64
2021/05/26 00:15:53;;;;;;;11.73;9.63;;;;;;;15.10;73.78;96559.91;5113380;28;20485;-61
2021/05/26 00:18:20;;;;;;;10.43;9.30;;;;;;;15.06;73.05;96553.13;5113408;28;20486;-65
2021/05/26 00:20:47;;;;;;;13.90;10.40;;;;;;;14.97;73.61;96550.06;5113434;28;20023;-62
2021/05/26 00:23:14;;;;;;;11.95;10.75;;;;;;;14.94;74.35;96554.66;5113449;28;20024;-64
2021/05/26 00:25:39;;;;;;;10.30;9.18;;;;;;;14.95;73.91;96545.81;5113427;28;20023;-62
2021/05/26 00:28:05;;;;;;;10.50;9.60;;;;;;;14.93;73.82;96543.25;5113302;28;20023;-64
2021/05/26 00:30:33;;;;;;;9.68;8.77;;;;;;;14.88;74.20;96534.78;5113432;28;20060;-61
2021/05/26 00:32:59;;;;;;;11.70;9.10;;;;;;;14.84;73.40;96536.72;5113276;28;20030;-62
2021/05/26 00:35:24;;;;;;;10.85;9.75;;;;;;;14.84;74.03;96533.25;5113206;28;20043;-63
2021/05/26 00:37:51;;;;;;;10.35;9.27;;;;;;;14.86;74.17;96526.09;5113244;28;20038;-61
2021/05/26 00:40:17;;;;;;;11.63;10.23;;;;;;;14.85;73.65;96520.00;5113233;28;20064;-52
2021/05/26 00:42:43;;;;;;;9.65;8.80;;;;;;;14.80;73.71;96522.03;5114614;28;20023;-63
2021/05/26 00:45:09;;;;;;;12.10;10.02;;;;;;;14.78;73.50;96514.22;5113814;28;20107;-62
2021/05/26 00:47:36;;;;;;;13.73;11.57;;;;;;;14.66;74.12;96520.16;5113324;28;20027;-63
2021/05/26 00:50:03;;;;;;;12.77;11.50;;;;;;;14.61;74.81;96519.53;5113434;28;20106;-61
2021/05/26 00:52:29;;;;;;;13.02;10.77;;;;;;;14.65;74.47;96519.28;5116846;28;20023;-61
2021/05/26 00:54:55;;;;;;;12.48;10.10;;;;;;;14.66;74.41;96520.16;5116908;28;20073;-60
2021/05/26 00:57:20;;;;;;;14.43;10.30;;;;;;;14.64;74.40;96528.13;5116959;28;20106;-58
2021/05/26 00:59:46;;;;;;;13.48;10.30;;;;;;;14.65;74.58;96513.16;5115592;28;20461;-64
2021/05/26 01:02:12;;;;;;;12.02;10.98;;;;;;;14.66;74.35;96510.44;5116713;28;20020;-64
2021/05/26 01:04:37;;;;;;;11.63;10.52;;;;;;;14.66;73.72;96509.63;5116743;28;20028;-59
2021/05/26 01:07:03;;;;;;;14.93;9.02;;;;;;;14.65;73.96;96515.78;5116845;27;20031;-62
2021/05/26 01:09:29;;;;;;;10.57;9.63;;;;;;;14.59;73.74;96510.84;5116698;28;20020;-60
2021/05/26 01:11:54;;;;;;;15.00;9.55;;;;;;;14.53;73.46;96512.91;5116616;28;20562;-62
2021/05/26 01:14:20;;;;;;;10.27;9.35;;;;;;;14.56;73.80;96514.50;5116499;28;20019;-60
2021/05/26 01:16:46;;;;;;;12.10;10.65;;;;;;;14.59;73.98;96516.13;5116419;28;20077;-60
2021/05/26 01:19:15;;;;;;;13.82;12.55;;;;;;;14.56;74.04;96513.66;5116438;28;20028;-62
2021/05/26 01:21:41;;;;;;;13.15;11.50;;;;;;;14.53;74.72;96514.69;5116413;28;20019;-62
2021/05/26 01:24:07;;;;;;;11.60;10.38;;;;;;;14.52;74.24;96505.09;5116379;28;20030;-62
2021/05/26 01:26:33;;;;;;;10.35;9.35;;;;;;;14.50;73.70;96506.94;5116229;28;20024;-62
2021/05/26 01:28:58;;;;;;;11.48;10.38;;;;;;;14.50;74.01;96504.31;5116126;28;20027;-60
2021/05/26 01:31:24;;;;;;;11.38;9.52;;;;;;;14.47;73.63;96512.38;5116235;28;20023;-62
2021/05/26 01:33:50;;;;;;;10.48;9.43;;;;;;;14.46;73.38;96508.91;5116290;28;20103;-55
2021/05/26 01:36:16;;;;;;;11.77;10.02;;;;;;;14.47;73.52;96507.13;5114495;28;20040;-61
2021/05/26 01:38:42;;;;;;;10.85;8.82;;;;;;;14.46;73.40;96508.06;5115873;28;20054;-63
2021/05/26 01:41:07;;;;;;;10.90;9.73;;;;;;;14.46;73.70;96515.94;5115927;28;20027;-58
2021/05/26 01:43:34;;;;;;;15.18;9.63;;;;;;;14.45;73.28;96517.72;5115994;28;20016;-63
2021/05/26 01:46:01;;;;;;;12.80;10.30;;;;;;;14.42;73.62;96519.69;5115843;28;20031;-60
2021/05/26 01:48:27;;;;;;;10.70;9.55;;;;;;;14.39;73.67;96518.91;5115841;28;20047;-64
2021/05/26 01:50:52;;;;;;;11.88;10.07;;;;;;;14.38;73.58;96513.72;5115601;28;20051;-62
2021/05/26 01:53:18;;;;;;;12.68;10.68;;;;;;;14.31;74.12;96518.47;5115692;28;20016;-63
2021/05/26 01:55:44;;;;;;;14.15;10.20;;;;;;;14.33;74.03;96519.22;5115708;28;20020;-60
2021/05/26 01:58:14;;;;;;;11.45;10.25;;;;;;;14.33;73.82;96519.22;5114332;28;20432;-59
2021/05/26 02:00:41;;;;;;;9.88;9.07;;;;;;;14.32;73.56;96511.41;5115646;28;20031;-63
2021/05/26 02:03:07;;;;;;;9.93;8.88;;;;;;;14.32;73.81;96512.28;5115193;28;20420;-62
2021/05/26 02:05:33;;;;;;;11.43;8.88;;;;;;;14.32;73.01;96511.41;5115559;28;20033;-58
2021/05/26 02:08:00;;;;;;;13.40;9.07;;;;;;;14.26;72.77;96516.09;5115394;28;20023;-58
2021/05/26 02:13:10;;;;;;;11.30;10.20;;;;;;;14.16;73.84;96522.78;5115460;28;20112;-64
2021/05/26 02:15:36;;;;;;;10.98;9.50;;;;;;;14.15;73.72;96524.53;5115416;28;20473;-60
2021/05/26 02:18:01;;;;;;;14.30;9.25;;;;;;;14.18;73.38;96527.97;5115160;28;20122;-61
2021/05/26 02:20:27;;;;;;;11.98;9.70;;;;;;;14.14;73.58;96525.50;5115188;28;20094;-64
2021/05/26 02:22:53;;;;;;;16.52;11.55;;;;;;;14.13;74.09;96529.06;5115126;28;20070;-62
2021/05/26 02:25:18;;;;;;;11.65;10.52;;;;;;;14.15;74.21;96531.59;5115133;28;20545;-61
2021/05/26 02:27:44;;;;;;;11.65;9.43;;;;;;;14.18;73.79;96527.97;5115091;28;20369;-59
2021/05/26 02:30:10;;;;;;;10.27;8.73;;;;;;;14.15;72.90;96524.53;5115204;28;20085;-63
2021/05/26 02:32:36;;;;;;;10.40;9.40;;;;;;;14.15;73.08;96527.19;5114948;28;20026;-61
2021/05/26 02:35:04;;;;;;;8.90;8.00;;;;;;;14.14;73.11;96527.25;5114651;28;20031;-63
2021/05/26 02:37:29;;;;;;;10.57;9.48;;;;;;;14.14;73.41;96532.53;5114877;28;20492;-61
2021/05/26 02:39:55;;;;;;;10.00;8.90;;;;;;;14.11;73.68;96522.16;5114664;28;20034;-61
2021/05/26 02:42:20;;;;;;;13.48;11.35;;;;;;;14.05;75.04;96527.75;5114876;28;20030;-65
2021/05/26 02:44:46;;;;;;;11.77;10.65;;;;;;;14.06;75.26;96532.91;5114803;28;20026;-60
2021/05/26 02:47:11;;;;;;;10.20;9.10;;;;;;;14.06;74.04;96532.09;5114786;28;20077;-61
2021/05/26 02:49:37;;;;;;;10.63;9.05;;;;;;;14.06;74.15;96532.91;5114625;28;20020;-61
2021/05/26 02:52:03;;;;;;;13.25;9.30;;;;;;;14.06;74.77;96537.34;5114525;28;20022;-60
2021/05/26 02:54:29;;;;;;;11.70;9.07;;;;;;;14.07;74.64;96529.38;5114690;28;20378;-63
2021/05/26 02:56:54;;;;;;;8.35;7.55;;;;;;;14.07;73.09;96534.63;5114416;28;20024;-63
2021/05/26 02:59:20;;;;;;;9.85;8.38;;;;;;;13.99;73.24;96544.69;5114468;28;20027;-62
2021/05/26 03:01:45;;;;;;;10.45;9.57;;;;;;;13.92;74.95;96538.06;5114393;28;20077;-60
2021/05/26 03:04:11;;;;;;;10.32;9.25;;;;;;;13.96;75.26;96534.31;5114312;28;20012;-62
2021/05/26 03:06:37;;;;;;;8.68;7.78;;;;;;;14.02;74.88;96534.00;5114209;28;20019;-64
2021/05/26 03:09:03;;;;;;;8.73;7.75;;;;;;;14.05;74.56;96547.00;5114256;28;20059;-64
2021/05/26 03:11:29;;;;;;;10.20;8.68;;;;;;;14.07;74.50;96550.41;5114308;28;20023;-63
2021/05/26 03:13:55;;;;;;;9.82;8.93;;;;;;;14.10;74.70;96552.03;5113250;28;20370;-62
2021/05/26 03:16:21;;;;;;;9.77;8.77;;;;;;;14.12;74.75;96544.91;5114017;28;20029;-63
2021/05/26 03:18:49;;;;;;;12.35;9.10;;;;;;;14.11;74.54;96551.94;5114292;28;20062;-62
2021/05/26 03:21:15;;;;;;;15.88;8.00;;;;;;;14.14;74.48;96550.94;5114228;28;20031;-58
2021/05/26 03:23:42;;;;;;;8.43;7.60;;;;;;;14.18;74.21;96551.63;5114149;28;20024;-62
2021/05/26 03:26:08;;;;;;;9.65;7.25;;;;;;;14.09;74.41;96552.97;5113976;28;20031;-62
2021/05/26 03:28:34;;;;;;;9.40;7.55;;;;;;;14.01;74.42;96561.25;5112620;28;20031;-63
2021/05/26 03:31:00;;;;;;;7.88;7.18;;;;;;;14.10;74.66;96555.53;5113813;28;20089;-56
2021/05/26 03:33:27;;;;;;;8.30;7.57;;;;;;;14.28;74.68;96555.47;5113937;28;20416;-62
2021/05/26 03:35:52;;;;;;;8.20;6.50;;;;;;;14.51;73.65;96564.78;5112373;28;20052;-63
2021/05/26 03:38:18;;;;;;;7.47;6.45;;;;;;;14.73;73.31;96575.94;5113808;28;20526;-62
2021/05/26 03:40:43;;;;;;;7.03;5.90;;;;;;;14.98;72.91;96564.94;5113681;28;20111;-65
2021/05/26 03:43:09;;;;;;;7.30;5.85;;;;;;;15.25;72.63;96574.00;5113655;28;20012;-61
2021/05/26 03:45:35;;;;;;;8.10;5.90;;;;;;;15.55;71.73;96575.81;5113615;28;20019;-61
2021/05/26 03:48:01;;;;;;;5.32;4.72;;;;;;;15.87;70.11;96569.63;5113820;28;20059;-64
2021/05/26 03:50:28;;;;;;;8.70;4.65;;;;;;;16.15;69.49;96573.28;5113548;28;20035;-60
2021/05/26 03:52:55;;;;;;;8.35;4.10;;;;;;;16.42;69.23;96578.69;5113536;28;20031;-61
2021/05/26 03:55:22;;;;;;;5.20;4.70;;;;;;;16.66;69.71;96579.88;5113659;28;20019;-63
2021/05/26 03:57:48;;;;;;;5.05;4.60;;;;;;;16.78;69.67;96589.69;5113463;28;20035;-62
2021/05/26 04:00:18;;;;;;;4.45;4.05;;;;;;;17.07;68.96;96577.41;5113587;28;20020;-64
2021/05/26 04:02:44;;;;;;;4.65;4.25;;;;;;;17.46;67.68;96574.94;5113549;28;20024;-59
2021/05/26 04:05:11;;;;;;;4.25;3.85;;;;;;;17.78;66.07;96579.88;5113467;28;20398;-65
2021/05/26 04:07:36;;;;;;;5.55;3.70;;;;;;;18.02;65.08;96571.25;5113459;28;20427;-60
2021/05/26 04:10:03;;;;;;;5.07;3.22;;;;;;;18.28;64.71;96577.44;5113507;28;20082;-60
2021/05/26 04:12:29;;;;;;;7.15;3.83;;;;;;;18.46;63.95;96585.06;5113437;28;20024;-61
2021/05/26 04:14:55;;;;;;;6.07;4.20;;;;;;;18.73;63.46;96586.75;5113476;28;20480;-66
2021/05/26 04:17:21;;;;;;;5.72;3.70;;;;;;;19.04;62.76;96589.00;5113364;28;20136;-61
2021/05/26 04:19:47;;;;;;;6.20;4.35;;;;;;;19.35;62.30;96588.63;5113427;28;20028;-65
2021/05/26 04:22:12;;;;;;;7.00;4.32;;;;;;;19.61;60.86;96596.44;5113363;28;20373;-61
2021/05/26 04:24:38;;;;;;;4.00;3.40;;;;;;;19.90;60.15;96593.44;5113547;28;20032;-65
2021/05/26 04:27:04;;;;;;;4.07;3.67;;;;;;;20.16;59.86;96599.44;5117277;28;20473;-64
2021/05/26 04:29:30;;;;;;;5.18;3.50;;;;;;;20.41;59.14;96597.56;5117401;28;20069;-63
2021/05/26 04:31:56;;;;;;;6.22;3.78;;;;;;;20.58;59.17;96598.06;5117594;28;20427;-62
2021/05/26 04:34:22;;;;;;;4.72;3.25;;;;;;;20.81;58.84;96604.25;5117645;28;20024;-63
2021/05/26 04:36:48;;;;;;;4.90;3.85;;;;;;;21.11;58.37;96609.06;5117071;28;20051;-61
2021/05/26 04:39:13;;;;;;;7.53;3.60;;;;;;;21.42;57.87;96623.41;5117286;28;20015;-61
2021/05/26 04:41:39;;;;;;;4.78;3.55;;;;;;;21.75;57.49;96620.78;5117229;28;20023;-63
2021/05/26 04:44:05;;;;;;;6.03;3.75;;;;;;;21.98;57.00;96622.53;5117168;28;20028;-63
2021/05/26 04:46:31;;;;;;;4.93;3.38;;;;;;;22.14;57.04;96620.25;5116980;28;20020;-65
2021/05/26 04:48:57;;;;;;;4.65;3.45;;;;;;;22.37;57.26;96633.47;5117199;28;20032;-64
2021/05/26 04:51:23;;;;;;;3.67;3.38;;;;;;;22.64;56.22;96623.25;5116933;28;20477;-63
2021/05/26 04:53:48;;;;;;;10.25;3.65;;;;;;;22.88;55.60;96622.09;5116909;28;20020;-63
2021/05/26 04:56:14;;;;;;;9.13;3.50;;;;;;;23.06;54.84;96617.00;5116899;28;20051;-60
2021/05/26 04:58:42;;;;;;;5.57;3.45;;;;;;;23.28;54.36;96604.41;5116985;28;20031;-62
2021/05/26 05:01:07;;;;;;;4.45;3.53;;;;;;;23.26;54.00;96601.03;5116914;28;20053;-62
2021/05/26 05:03:34;;;;;;;7.80;3.55;;;;;;;23.35;54.42;96603.72;5116648;28;20106;-63
2021/05/26 05:05:59;;;;;;;3.60;3.30;;;;;;;23.65;53.70;96603.78;5116812;28;20489;-64
2021/05/26 05:08:25;;;;;;;4.88;3.47;;;;;;;23.87;52.84;96598.31;5115432;28;20042;-66
2021/05/26 05:10:54;;;;;;;8.57;3.33;;;;;;;23.94;52.23;96591.44;5116543;28;20112;-61
2021/05/26 05:13:20;;;;;;;6.18;4.05;;;;;;;24.21;52.57;96598.75;5116667;28;20019;-61
2021/05/26 05:15:45;;;;;;;5.95;3.70;;;;;;;24.35;53.61;96601.97;5116450;28;20020;-64
2021/05/26 05:18:12;;;;;;;4.75;4.20;;;;;;;24.43;51.99;96590.53;5116286;28;20039;-65
2021/05/26 05:20:38;;;;;;;6.00;4.28;;;;;;;24.66;51.47;96599.06;5116282;28;20024;-62
2021/05/26 05:23:03;;;;;;;5.35;3.70;;;;;;;24.88;51.80;96588.16;5116346;28;20027;-60
2021/05/26 05:25:29;;;;;;;10.57;3.80;;;;;;;25.03;50.21;96593.88;5116332;28;20030;-65
2021/05/26 05:27:55;;;;;;;10.57;3.78;;;;;;;25.23;51.26;96592.75;5116299;28;20023;-62
2021/05/26 05:30:21;;;;;;;6.80;3.72;;;;;;;25.45;50.34;96589.81;5116389;28;20019;-62
2021/05/26 05:32:47;;;;;;;4.78;3.65;;;;;;;25.67;50.40;96601.97;5116105;28;20030;-63
2021/05/26 05:35:13;;;;;;;4.85;3.28;;;;;;;25.82;49.22;96594.22;5115941;28;20035;-64
2021/05/26 05:37:38;;;;;;;5.80;3.35;;;;;;;26.02;49.67;96603.94;5115106;28;20090;-63
2021/05/26 05:40:05;;;;;;;9.02;3.70;;;;;;;26.16;49.13;96600.72;5114875;28;20154;-62
2021/05/26 05:42:30;;;;;;;4.22;3.28;;;;;;;26.20;49.39;96602.09;5115959;28;20088;-63
2021/05/26 05:44:56;;;;;;;8.02;3.97;;;;;;;26.42;48.40;96605.28;5115888;28;20019;-60
2021/05/26 05:47:22;;;;;;;5.60;2.92;;;;;;;26.54;48.15;96610.38;5116141;28;20027;-62
2021/05/26 05:49:47;;;;;;;7.22;3.42;;;;;;;26.66;48.04;96608.28;5115935;28;20030;-63
2021/05/26 05:52:13;;;;;;;6.35;3.13;;;;;;;26.74;47.35;96619.91;5115851;28;20023;-65
2021/05/26 05:54:39;;;;;;;4.20;3.35;;;;;;;26.91;47.06;96617.28;5115766;28;20031;-65
2021/05/26 05:57:06;;;;;;;6.65;3.50;;;;;;;27.06;46.54;96620.25;5114420;28;20080;-62
2021/05/26 05:59:33;;;;;;;5.63;3.30;;;;;;;27.23;46.11;96614.94;5115777;28;20062;-61
2021/05/26 06:01:58;;;;;;;4.18;3.05;;;;;;;27.36;46.29;96615.31;5115832;28;20026;-64
2021/05/26 06:04:25;;;;;;;8.05;3.13;;;;;;;27.55;46.53;96616.06;5115526;28;20020;-62
2021/05/26 06:06:50;;;;;;;12.20;3.42;;;;;;;27.40;46.30;96620.38;5115473;28;20465;-64
2021/05/26 06:09:16;;;;;;;4.13;3.13;;;;;;;27.41;46.62;96617.53;5115519;28;20031;-66
2021/05/26 06:11:42;;;;;;;6.75;2.95;;;;;;;27.52;46.23;96612.84;5115368;28;20047;-64
2021/05/26 06:14:08;;;;;;;6.53;3.10;;;;;;;27.31;46.44;96615.00;5115469;28;20016;-65
2021/05/26 06:16:38;;;;;;;3.00;2.80;;;;;;;27.32;46.74;96610.44;5115282;28;20054;-66
2021/05/26 06:19:06;;;;;;;4.47;2.80;;;;;;;27.55;46.39;96617.91;5115303;28;20088;-61
2021/05/26 06:21:33;;;;;;;6.78;2.72;;;;;;;27.79;45.54;96625.19;5115312;28;20568;-63
2021/05/26 06:23:59;;;;;;;5.35;2.85;;;;;;;27.95;45.06;96629.75;5115227;28;20037;-65
2021/05/26 06:26:25;;;;;;;4.30;2.80;;;;;;;28.20;44.78;96619.00;5115193;28;20458;-61
2021/05/26 06:28:51;;;;;;;8.45;3.17;;;;;;;28.46;44.80;96625.22;5115114;28;20027;-65
2021/05/26 06:31:16;;;;;;;6.65;3.17;;;;;;;28.57;44.34;96622.22;5115100;28;20073;-59
2021/05/26 06:33:42;;;;;;;6.03;3.10;;;;;;;28.69;44.68;96628.06;5114996;28;20050;-59
2021/05/26 06:36:11;;;;;;;6.55;3.00;;;;;;;28.85;44.28;96619.13;5114752;28;20047;-65
2021/05/26 06:38:38;;;;;;;4.00;3.33;;;;;;;28.92;44.18;96627.31;5114961;28;20024;-58
2021/05/26 06:41:03;;;;;;;6.28;2.95;;;;;;;28.99;44.31;96622.13;5114939;28;20020;-62
2021/05/26 06:43:29;;;;;;;3.00;2.75;;;;;;;29.09;44.72;96619.22;5114736;28;20085;-63
2021/05/26 06:45:55;;;;;;;6.40;3.17;;;;;;;29.28;43.66;96620.66;5114678;28;20020;-65
2021/05/26 06:48:21;;;;;;;8.50;2.85;;;;;;;29.28;43.46;96615.25;5114589;28;20415;-62
2021/05/26 06:50:47;;;;;;;5.93;2.55;;;;;;;29.36;43.33;96620.63;5114764;28;20492;-62
2021/05/26 06:53:12;;;;;;;4.53;3.20;;;;;;;29.53;42.99;96617.84;5114602;28;20049;-62
2021/05/26 06:55:38;;;;;;;8.30;2.83;;;;;;;29.69;42.79;96616.94;5114698;27;20020;-62
2021/05/26 06:58:03;;;;;;;10.65;3.53;;;;;;;29.50;43.56;96621.72;5114379;28;20020;-63
2021/05/26 07:00:30;;;;;;;7.15;3.03;;;;;;;29.48;42.95;96618.38;5114554;28;20035;-63
2021/05/26 07:02:56;;;;;;;6.45;2.80;;;;;;;29.51;43.62;96614.47;5114524;28;20024;-61
2021/05/26 07:05:22;;;;;;;7.00;3.10;;;;;;;29.61;42.93;96615.13;5114446;28;20033;-64
2021/05/26 07:07:48;;;;;;;6.13;3.15;;;;;;;29.52;43.85;96618.84;5114398;28;20094;-65
2021/05/26 07:10:16;;;;;;;8.48;3.20;;;;;;;29.59;43.37;96613.63;5114187;28;20362;-65
2021/05/26 07:12:41;;;;;;;5.63;3.00;;;;;;;29.85;43.30;96610.59;5114228;28;20027;-64
2021/05/26 07:15:07;;;;;;;7.57;2.83;;;;;;;30.09;43.44;96605.19;5114264;28;20111;-63
2021/05/26 07:17:33;;;;;;;8.82;3.03;;;;;;;30.26;41.51;96609.47;5114088;28;20055;-63
2021/05/26 07:19:59;;;;;;;7.28;2.70;;;;;;;30.19;43.01;96611.19;5113972;28;20462;-64
2021/05/26 07:22:25;;;;;;;3.33;2.45;;;;;;;30.32;42.22;96607.91;5114151;28;20106;-64
2021/05/26 07:24:50;;;;;;;6.25;3.05;;;;;;;30.29;42.54;96604.72;5114029;28;20027;-64
2021/05/26 07:27:16;;;;;;;9.50;2.92;;;;;;;30.22;42.80;96604.63;5114064;28;20020;-62
2021/05/26 07:29:42;;;;;;;7.85;3.38;;;;;;;30.39;42.49;96595.34;5114088;28;20034;-65
2021/05/26 07:32:08;;;;;;;8.90;3.15;;;;;;;30.54;42.44;96597.22;5114044;28;20015;-64
2021/05/26 07:34:33;;;;;;;5.60;2.97;;;;;;;30.34;42.07;96594.22;5113880;28;20489;-62
2021/05/26 07:36:59;;;;;;;7.43;2.88;;;;;;;30.37;42.12;96594.69;5113485;28;20131;-61
2021/05/26 07:39:28;;;;;;;8.65;3.38;;;;;;;30.09;42.81;96602.50;5113939;28;20022;-62
2021/05/26 07:41:53;;;;;;;12.30;3.55;;;;;;;29.84;43.91;96602.69;5113819;28;20024;-64
2021/05/26 07:44:19;;;;;;;9.35;2.92;;;;;;;29.95;42.01;96604.13;5113669;28;20377;-61
2021/05/26 07:46:44;;;;;;;6.22;2.88;;;;;;;29.82;42.51;96607.41;5113761;28;20036;-64
2021/05/26 07:49:10;;;;;;;9.32;3.22;;;;;;;29.78;42.50;96598.84;5113801;28;20031;-61
2021/05/26 07:51:41;;;;;;;6.50;2.95;;;;;;;29.78;43.00;96606.94;5113718;28;20160;-64
2021/05/26 07:54:06;;;;;;;10.45;2.95;;;;;;;29.77;43.92;96602.59;5113755;28;20489;-62
2021/05/26 07:56:34;;;;;;;11.43;3.63;;;;;;;29.86;42.30;96606.06;5113475;28;20040;-61
2021/05/26 07:58:59;;;;;;;11.10;3.28;;;;;;;30.04;42.24;96605.75;5113766;28;20031;-64
2021/05/26 08:01:25;;;;;;;11.45;3.60;;;;;;;30.01;42.04;96608.81;5113013;28;20374;-66
2021/05/26 08:03:50;;;;;;;7.15;3.50;;;;;;;30.03;41.90;96612.13;5113461;28;20020;-63
2021/05/26 08:06:16;;;;;;;9.80;3.88;;;;;;;29.99;42.38;96610.84;5113648;28;20085;-62
2021/05/26 08:08:41;;;;;;;8.43;3.25;;;;;;;30.21;41.53;96609.16;5113405;28;20016;-62
2021/05/26 08:11:07;;;;;;;5.07;3.20;;;;;;;30.13;42.04;96611.91;5113400;28;20028;-62
2021/05/26 08:13:33;;;;;;;8.07;4.15;;;;;;;30.08;40.86;96617.84;5113584;28;20016;-65
2021/05/26 08:15:58;;;;;;;9.52;3.42;;;;;;;29.62;41.64;96622.19;5113510;28;20100;-61
2021/05/26 08:18:24;;;;;;;6.78;3.60;;;;;;;29.55;42.93;96617.69;5113327;28;20028;-61
2021/05/26 08:20:50;;;;;;;15.38;4.00;;;;;;;29.74;43.01;96614.53;5113289;28;20073;-65
2021/05/26 08:23:16;;;;;;;11.38;3.65;;;;;;;29.95;42.74;96617.63;5113392;28;20053;-63
2021/05/26 08:25:42;;;;;;;7.70;3.47;;;;;;;30.08;42.51;96620.53;5113319;28;20020;-64
2021/05/26 08:28:08;;;;;;;6.15;3.60;;;;;;;29.92;41.43;96616.13;5113359;28;20069;-64
2021/05/26 08:30:35;;;;;;;6.47;3.40;;;;;;;30.23;41.00;96617.06;5112200;28;20016;-66
2021/05/26 08:33:01;;;;;;;5.97;3.33;;;;;;;30.11;41.59;96616.63;5113172;28;20050;-61
2021/05/26 08:35:26;;;;;;;8.00;3.47;;;;;;;30.05;41.30;96618.22;5113202;28;20039;-61
2021/05/26 08:37:52;;;;;;;8.95;3.38;;;;;;;30.00;41.66;96613.34;5113313;28;20031;-61
2021/05/26 08:40:19;;;;;;;8.32;3.88;;;;;;;30.06;41.41;96621.72;5113186;28;20427;-64
2021/05/26 08:42:45;;;;;;;5.63;3.20;;;;;;;29.98;41.14;96622.66;5113310;28;20027;-62
2021/05/26 08:45:13;;;;;;;7.57;3.60;;;;;;;29.96;40.76;96616.59;5113028;28;20024;-62
2021/05/26 08:47:42;;;;;;;31.65;3.90;;;;;;;30.28;40.93;96625.47;5113031;28;20024;-63
2021/05/26 08:50:09;;;;;;;8.30;3.50;;;;;;;30.32;40.13;96626.78;5112965;28;20031;-63
2021/05/26 08:52:35;;;;;;;6.18;3.55;;;;;;;30.59;40.43;96618.25;5112990;28;20031;-61
2021/05/26 08:55:01;;;;;;;7.55;3.60;;;;;;;30.71;40.76;96613.25;5113103;28;20020;-61
2021/05/26 08:57:27;;;;;;;6.35;3.75;;;;;;;30.50;40.97;96617.50;5112818;28;20052;-61
2021/05/26 08:59:53;;;;;;;9.77;3.30;;;;;;;30.35;41.28;96621.03;5113034;28;20054;-66
2021/05/26 09:02:19;;;;;;;6.25;3.35;;;;;;;29.94;41.96;96619.47;5113197;28;20049;-66
2021/05/26 09:04:44;;;;;;;7.25;3.75;;;;;;;29.88;41.33;96614.78;5112950;28;20389;-62
2021/05/26 09:07:22;;;;;;;11.38;3.88;;;;;;;30.12;41.79;96607.53;5112982;28;20496;-61
2021/05/26 09:09:57;;;;;;;4.68;3.40;;;;;;;30.02;42.01;96605.09;5113016;28;20032;-62
2021/05/26 09:12:32;;;;;;;9.80;3.70;;;;;;;29.85;41.69;96607.91;5113821;28;20047;-63
2021/05/26 09:15:08;;;;;;;9.30;3.55;;;;;;;29.79;44.14;96607.78;5116614;28;20031;-63
2021/05/26 09:17:34;;;;;;;11.27;4.28;;;;;;;29.92;43.13;96607.19;5116452;28;20047;-62
2021/05/26 09:20:22;;;;;;;8.57;4.90;;;;;;;30.13;44.41;96606.53;5116549;28;20355;-62
2021/05/26 09:23:12;;;;;;;10.15;5.15;;;;;;;29.96;43.04;96603.09;5116485;28;20030;-65
2021/05/26 09:25:47;;;;;;;8.37;5.83;;;;;;;29.22;45.60;96603.34;5116306;28;20393;-65
2021/05/26 09:28:39;;;;;;;8.88;5.72;;;;;;;28.51;46.31;96598.69;5116244;28;20034;-62
2021/05/26 09:31:10;;;;;;;8.52;5.80;;;;;;;28.38;46.16;96593.81;5116424;28;20028;-63
2021/05/26 09:33:47;;;;;;;11.40;6.78;;;;;;;28.15;47.70;96588.25;5116226;28;20106;-61
2021/05/26 09:36:26;;;;;;;12.02;6.50;;;;;;;28.34;46.89;96593.31;5115815;28;20054;-63
2021/05/26 09:38:58;;;;;;;8.45;6.10;;;;;;;28.26;46.84;96586.06;5116236;28;20016;-61
2021/05/26 09:41:36;;;;;;;11.57;6.75;;;;;;;27.94;47.88;96586.91;5116086;28;20035;-65
2021/05/26 09:44:10;;;;;;;14.15;6.78;;;;;;;27.86;49.38;96587.75;5115971;28;20032;-62
2021/05/26 09:46:40;;;;;;;10.48;7.00;;;;;;;27.60;48.55;96581.47;5115966;28;20594;-62
2021/05/26 09:49:08;;;;;;;8.90;7.50;;;;;;;27.33;48.30;96580.75;5115902;28;20106;-64
2021/05/26 09:51:55;;;;;;;10.15;7.60;;;;;;;26.98;51.02;96569.22;5115732;28;20038;-64
2021/05/26 09:54:28;;;;;;;11.60;7.03;;;;;;;27.02;51.49;96578.63;5115900;28;20104;-65
2021/05/26 09:57:03;;;;;;;9.98;7.38;;;;;;;27.21;50.83;96574.03;5115803;28;20036;-61
2021/05/26 09:59:29;;;;;;;16.90;8.00;;;;;;;26.83;49.52;96575.19;5115587;28;20027;-65
2021/05/26 10:01:55;;;;;;;18.00;8.48;;;;;;;26.69;53.41;96575.75;5115648;28;20045;-63
2021/05/26 10:04:21;;;;;;;13.48;7.50;;;;;;;27.13;52.22;96577.50;5115548;28;20016;-61
2021/05/26 10:06:49;;;;;;;12.57;7.28;;;;;;;27.34;49.46;96579.75;5115703;28;20386;-62
2021/05/26 10:09:20;;;;;;;16.42;8.20;;;;;;;26.97;50.37;96567.53;5115508;28;20069;-66
2021/05/26 10:11:47;;;;;;;16.10;8.18;;;;;;;26.95;52.40;96574.88;5115906;28;20444;-63
2021/05/26 10:14:15;;;;;;;12.05;8.10;;;;;;;27.24;50.74;96569.16;5115506;28;20020;-66
2021/05/26 10:16:45;;;;;;;14.07;7.88;;;;;;;27.04;50.79;96571.28;5115258;28;20016;-64
2021/05/26 10:19:12;;;;;;;13.30;7.90;;;;;;;26.67;50.14;96570.56;5115421;28;20107;-62
2021/05/26 10:21:39;;;;;;;10.52;7.72;;;;;;;26.69;51.27;96568.56;5115325;28;20445;-66
2021/05/26 10:24:06;;;;;;;14.55;8.18;;;;;;;26.72;51.85;96570.09;5114638;28;20101;-62
2021/05/26 10:26:47;;;;;;;16.60;8.55;;;;;;;26.68;51.52;96572.25;5115047;28;20373;-62
2021/05/26 10:29:33;;;;;;;14.20;8.05;;;;;;;26.59;50.70;96560.66;5115136;28;20036;-62
2021/05/26 10:32:05;;;;;;;14.60;7.85;;;;;;;26.49;52.33;96565.28;5115351;28;20104;-62
2021/05/26 10:34:42;;;;;;;17.65;8.25;;;;;;;26.38;52.47;96563.72;5115130;28;20106;-63
2021/05/26 10:37:10;;;;;;;13.07;8.80;;;;;;;26.49;51.92;96555.38;5114606;28;20048;-63
2021/05/26 10:39:36;;;;;;;16.88;8.48;;;;;;;26.54;51.80;96551.38;5115131;28;20093;-65
2021/05/26 10:42:03;;;;;;;13.10;9.18;;;;;;;26.78;51.64;96553.34;5114934;28;20028;-63
2021/05/26 10:44:54;;;;;;;11.52;8.82;;;;;;;27.03;52.35;96552.66;5115050;28;20035;-60
2021/05/26 10:47:46;;;;;;;12.15;8.63;;;;;;;27.18;52.13;96550.19;5114695;28;20088;-61
2021/05/26 10:50:23;;;;;;;14.95;7.93;;;;;;;27.19;50.67;96551.84;5114653;28;20042;-66
2021/05/26 10:52:55;;;;;;;12.35;7.90;;;;;;;26.95;50.21;96562.31;5114587;28;20028;-66
2021/05/26 10:55:44;;;;;;;12.55;8.00;;;;;;;26.78;52.12;96550.66;5114732;28;20023;-65
2021/05/26 10:58:31;;;;;;;21.58;8.95;;;;;;;27.04;50.80;96546.28;5114332;28;20098;-63
2021/05/26 11:00:57;;;;;;;16.40;8.35;;;;;;;27.37;50.68;96547.22;5114404;28;20115;-61
2021/05/26 11:03:26;;;;;;;16.05;8.38;;;;;;;27.21;50.52;96542.63;5114339;28;20103;-64
2021/05/26 11:05:54;;;;;;;14.25;8.38;;;;;;;26.96;50.28;96541.69;5114287;28;20062;-61
2021/05/26 11:08:45;;;;;;;14.90;8.30;;;;;;;27.18;51.00;96539.44;5114437;28;20030;-62
2021/05/26 11:11:27;;;;;;;11.23;8.63;;;;;;;27.20;49.95;96545.47;5114409;28;20031;-64
2021/05/26 11:14:14;;;;;;;11.20;8.27;;;;;;;27.23;50.95;96529.03;5113027;28;20028;-65
2021/05/26 11:16:40;;;;;;;14.15;8.93;;;;;;;27.19;50.49;96531.22;5114043;28;20397;-65
2021/05/26 11:19:11;;;;;;;10.90;8.77;;;;;;;27.43;48.59;96534.97;5114235;28;20012;-64
2021/05/26 11:21:38;;;;;;;11.40;8.65;;;;;;;27.29;51.15;96527.53;5114255;28;20028;-64
2021/05/26 11:24:05;;;;;;;17.05;9.55;;;;;;;27.30;51.16;96526.56;5114045;28;20020;-64
2021/05/26 11:26:31;;;;;;;10.40;9.30;;;;;;;27.08;51.67;96524.31;5114049;28;20016;-62
2021/05/26 11:28:57;;;;;;;15.25;8.77;;;;;;;26.90;52.77;96523.56;5114026;28;20461;-63
2021/05/26 11:31:23;;;;;;;13.00;9.00;;;;;;;26.79;51.87;96517.47;5113965;28;20023;-63
2021/05/26 11:33:59;;;;;;;12.25;8.98;;;;;;;26.91;51.60;96520.69;5113877;28;20047;-65